• Join FlightAware (Why Join?)
  • Login
  • US Flag 
10:21PM EDT


 

Airport Tracker/Info


-or-


 

Live Flight TrackerFlight Track Log ✈ EJA929 ✈ 26-May-2013 ✈ KITH - KHPN

Flight Track Log - Related Links

Times and Time Zones

All times are in EDT time to prevent confusion due to time zone crossing. See the EJA929 flight status page for this flight to view local times or setup timezone preferences in your user account.

Time Position Orientation Groundspeed Altitude Reporting Facility
EDT Latitude Longitude Course Direction KTS MPH feet Rate Location/Type
01:12PM 42.5647 -76.5169 107° East 185 213 7,100  Level Boston Center
01:13PM 42.5828 -76.4250 75° East 172 198 9,900 2,400 Climbing Boston Center
01:14PM 42.5494 -76.3017 110° East 234 269 11,900 2,220 Climbing Boston Center
01:15PM 42.5161 -76.1756 110° East 317 365 14,400 1,500 Climbing Boston Center
01:16PM 42.4769 -76.0325 110° East 364 419 15,000 300 Climbing Boston Center
01:17PM 42.4339 -75.8781 111° Southeast 411 473 15,000  Level Boston Center
01:18PM 42.3344 -75.7547 107° East  Level FlightAware Approximate
01:18PM 42.3925 -75.7239 110° East 432 497 15,000  Level Boston Center
01:19PM 42.3469 -75.5614 111° Southeast 443 510 14,900  Descending Boston Center
01:20PM 42.3033 -75.4075 111° Southeast 448 516 15,000  Climbing Boston Center
01:21PM 42.2556 -75.2342 110° East 448 516 15,000  Level Boston Center
01:22PM 42.2153 -75.0864 110° East 436 502 15,100  Climbing Boston Center
01:23PM 42.1686 -74.9361 113° Southeast 436 502 15,100  Level Boston Center
01:24PM 42.1189 -74.8219 120° Southeast 436 502 15,100 -60 Level Boston Center
01:25PM 42.0200 -74.6731 132° Southeast 443 510 15,000 -60 Descending Boston Center
01:26PM 41.9408 -74.5642 134° Southeast 449 517 15,000 -60 Level Boston Center
01:27PM 41.8411 -74.4325 135° Southeast 454 522 14,900 -660 Descending Boston Center
01:28PM 41.7636 -74.3217 133° Southeast 448 516 13,700 -1,500 Descending Boston Center
01:29PM 41.6697 -74.1992 136° Southeast 442 509 11,900 -1,800 Descending Boston Center
01:30PM 41.6003 -74.1058 135° Southeast 406 467 10,200 -1,740 Descending Boston Center
01:31PM 41.5333 -74.0167 135° Southeast 304 350 8,500 -1,680 Descending New York TRACON
01:32PM 41.4667 -73.9333 137° Southeast 310 357 6,900 -1,500 Descending New York TRACON
01:33PM 41.4167 -73.8667 135° Southeast 295 339 5,500 -1,560 Descending New York TRACON
01:34PM 41.3500 -73.8000 143° Southeast 284 327 3,700 -1,260 Descending New York TRACON
01:35PM 41.2833 -73.7500 151° Southeast 271 312 3,000 -420 Descending New York TRACON
01:36PM 41.2167 -73.6833 143° Southeast 283 326 3,000  Level New York TRACON
01:37PM 41.1667 -73.6333 143° Southeast 294 338 3,000  Level New York TRACON
01:38PM 41.0833 -73.5833 156° South 268 308 3,000  Level New York TRACON
01:39PM 41.0167 -73.5667 169° South 252 290 3,000 -240 Level New York TRACON
01:40PM 40.9833 -73.6167 229° Southwest 208 239 2,600 -720 Descending New York TRACON
01:41PM 41.0167 -73.6667 311° West 173 199 1,600 -1,020 Descending New York TRACON